sensor_id;sensor_type;location;lat;lon;timestamp;P1;durP1;ratioP1;P2;durP2;ratioP2
28577;SDS011;15769;52.248;15.818;2024-03-02T00:01:40;50.47;;;27.55;;
28577;SDS011;15769;52.248;15.818;2024-03-02T00:06:43;48.45;;;28.55;;
28577;SDS011;15769;52.248;15.818;2024-03-02T00:11:47;54.75;;;30.58;;
28577;SDS011;15769;52.248;15.818;2024-03-02T00:16:50;53.60;;;30.98;;
28577;SDS011;15769;52.248;15.818;2024-03-02T00:21:54;55.60;;;32.50;;
28577;SDS011;15769;52.248;15.818;2024-03-02T00:26:57;56.95;;;33.95;;
28577;SDS011;15769;52.248;15.818;2024-03-02T00:32:01;65.90;;;35.00;;
28577;SDS011;15769;52.248;15.818;2024-03-02T00:37:05;63.08;;;35.60;;
28577;SDS011;15769;52.248;15.818;2024-03-02T00:42:08;67.22;;;36.55;;
28577;SDS011;15769;52.248;15.818;2024-03-02T00:47:11;68.68;;;39.47;;
28577;SDS011;15769;52.248;15.818;2024-03-02T00:52:15;67.50;;;37.83;;
28577;SDS011;15769;52.248;15.818;2024-03-02T00:57:18;72.05;;;40.05;;
28577;SDS011;15769;52.248;15.818;2024-03-02T01:02:21;67.38;;;38.92;;
28577;SDS011;15769;52.248;15.818;2024-03-02T01:07:24;78.68;;;43.45;;
28577;SDS011;15769;52.248;15.818;2024-03-02T01:17:31;78.67;;;44.43;;
28577;SDS011;15769;52.248;15.818;2024-03-02T01:22:35;87.07;;;45.28;;
28577;SDS011;15769;52.248;15.818;2024-03-02T01:27:38;82.55;;;46.38;;
28577;SDS011;15769;52.248;15.818;2024-03-02T01:32:42;78.18;;;44.33;;
28577;SDS011;15769;52.248;15.818;2024-03-02T01:37:46;82.90;;;46.40;;
28577;SDS011;15769;52.248;15.818;2024-03-02T01:42:49;88.32;;;49.00;;
28577;SDS011;15769;52.248;15.818;2024-03-02T01:47:52;91.28;;;50.20;;
28577;SDS011;15769;52.248;15.818;2024-03-02T01:52:55;93.70;;;52.58;;
28577;SDS011;15769;52.248;15.818;2024-03-02T01:57:59;86.90;;;50.55;;
28577;SDS011;15769;52.248;15.818;2024-03-02T02:08:06;92.20;;;51.88;;
28577;SDS011;15769;52.248;15.818;2024-03-02T02:13:09;94.95;;;53.38;;
28577;SDS011;15769;52.248;15.818;2024-03-02T02:18:13;94.20;;;51.75;;
28577;SDS011;15769;52.248;15.818;2024-03-02T02:23:16;98.65;;;53.97;;
28577;SDS011;15769;52.248;15.818;2024-03-02T02:28:21;97.75;;;53.60;;
28577;SDS011;15769;52.248;15.818;2024-03-02T02:33:24;103.45;;;55.65;;
28577;SDS011;15769;52.248;15.818;2024-03-02T02:38:27;96.43;;;55.25;;
28577;SDS011;15769;52.248;15.818;2024-03-02T02:48:34;108.47;;;55.93;;
28577;SDS011;15769;52.248;15.818;2024-03-02T02:53:39;103.10;;;56.42;;
28577;SDS011;15769;52.248;15.818;2024-03-02T02:58:49;102.47;;;56.28;;
28577;SDS011;15769;52.248;15.818;2024-03-02T03:03:55;102.13;;;57.25;;
28577;SDS011;15769;52.248;15.818;2024-03-02T03:09:00;103.97;;;57.10;;
28577;SDS011;15769;52.248;15.818;2024-03-02T03:24:11;99.43;;;55.80;;
28577;SDS011;15769;52.248;15.818;2024-03-02T03:29:14;99.35;;;56.30;;
28577;SDS011;15769;52.248;15.818;2024-03-02T03:34:17;100.55;;;57.00;;
28577;SDS011;15769;52.248;15.818;2024-03-02T03:39:21;113.50;;;60.42;;
28577;SDS011;15769;52.248;15.818;2024-03-02T03:44:27;105.30;;;57.97;;
28577;SDS011;15769;52.248;15.818;2024-03-02T03:49:32;112.95;;;60.95;;
28577;SDS011;15769;52.248;15.818;2024-03-02T03:54:35;111.95;;;59.50;;
28577;SDS011;15769;52.248;15.818;2024-03-02T03:59:44;104.65;;;58.85;;
28577;SDS011;15769;52.248;15.818;2024-03-02T04:04:50;113.03;;;61.30;;
28577;SDS011;15769;52.248;15.818;2024-03-02T04:09:53;118.40;;;63.75;;
28577;SDS011;15769;52.248;15.818;2024-03-02T04:14:58;109.28;;;59.83;;
28577;SDS011;15769;52.248;15.818;2024-03-02T04:20:01;104.28;;;56.65;;
28577;SDS011;15769;52.248;15.818;2024-03-02T04:25:07;116.97;;;62.80;;
28577;SDS011;15769;52.248;15.818;2024-03-02T04:30:12;113.72;;;60.75;;
28577;SDS011;15769;52.248;15.818;2024-03-02T04:35:15;115.95;;;61.60;;
28577;SDS011;15769;52.248;15.818;2024-03-02T04:40:18;114.30;;;60.45;;
28577;SDS011;15769;52.248;15.818;2024-03-02T04:45:23;118.63;;;65.60;;
28577;SDS011;15769;52.248;15.818;2024-03-02T04:50:26;119.70;;;64.75;;
28577;SDS011;15769;52.248;15.818;2024-03-02T04:55:30;118.80;;;62.70;;
28577;SDS011;15769;52.248;15.818;2024-03-02T05:00:42;116.97;;;63.45;;
28577;SDS011;15769;52.248;15.818;2024-03-02T05:05:46;120.10;;;63.13;;
28577;SDS011;15769;52.248;15.818;2024-03-02T05:15:52;126.53;;;65.53;;
28577;SDS011;15769;52.248;15.818;2024-03-02T05:20:55;121.32;;;65.25;;
28577;SDS011;15769;52.248;15.818;2024-03-02T05:25:59;128.45;;;65.32;;
28577;SDS011;15769;52.248;15.818;2024-03-02T05:36:05;126.30;;;67.10;;
28577;SDS011;15769;52.248;15.818;2024-03-02T05:46:12;122.17;;;65.93;;
28577;SDS011;15769;52.248;15.818;2024-03-02T05:51:16;131.00;;;65.45;;
28577;SDS011;15769;52.248;15.818;2024-03-02T05:56:19;126.72;;;66.47;;
28577;SDS011;15769;52.248;15.818;2024-03-02T06:01:22;124.95;;;65.25;;
28577;SDS011;15769;52.248;15.818;2024-03-02T06:06:31;128.20;;;67.32;;
28577;SDS011;15769;52.248;15.818;2024-03-02T06:11:36;113.28;;;60.70;;
28577;SDS011;15769;52.248;15.818;2024-03-02T06:16:40;130.02;;;68.88;;
28577;SDS011;15769;52.248;15.818;2024-03-02T06:21:43;125.85;;;66.35;;
28577;SDS011;15769;52.248;15.818;2024-03-02T06:27:04;125.90;;;65.88;;
28577;SDS011;15769;52.248;15.818;2024-03-02T06:32:32;125.97;;;66.70;;
28577;SDS011;15769;52.248;15.818;2024-03-02T06:38:03;117.32;;;61.80;;
28577;SDS011;15769;52.248;15.818;2024-03-02T06:43:32;110.57;;;59.40;;
28577;SDS011;15769;52.248;15.818;2024-03-02T06:48:52;118.40;;;61.25;;
28577;SDS011;15769;52.248;15.818;2024-03-02T06:54:19;110.68;;;58.67;;
28577;SDS011;15769;52.248;15.818;2024-03-02T07:04:27;121.22;;;63.78;;
28577;SDS011;15769;52.248;15.818;2024-03-02T07:09:30;117.55;;;64.18;;
28577;SDS011;15769;52.248;15.818;2024-03-02T07:14:33;110.38;;;57.88;;
28577;SDS011;15769;52.248;15.818;2024-03-02T07:19:59;117.55;;;61.22;;
28577;SDS011;15769;52.248;15.818;2024-03-02T07:25:05;113.07;;;58.65;;
28577;SDS011;15769;52.248;15.818;2024-03-02T07:30:13;103.38;;;55.38;;
28577;SDS011;15769;52.248;15.818;2024-03-02T07:35:19;118.63;;;63.78;;
28577;SDS011;15769;52.248;15.818;2024-03-02T07:40:24;114.50;;;62.10;;
28577;SDS011;15769;52.248;15.818;2024-03-02T07:45:32;112.95;;;62.08;;
28577;SDS011;15769;52.248;15.818;2024-03-02T07:50:36;120.65;;;66.05;;
28577;SDS011;15769;52.248;15.818;2024-03-02T07:55:43;116.43;;;61.45;;
28577;SDS011;15769;52.248;15.818;2024-03-02T08:00:46;109.25;;;60.05;;
28577;SDS011;15769;52.248;15.818;2024-03-02T08:05:55;114.25;;;62.40;;
28577;SDS011;15769;52.248;15.818;2024-03-02T08:11:10;109.85;;;58.65;;
28577;SDS011;15769;52.248;15.818;2024-03-02T08:16:15;112.50;;;61.05;;
28577;SDS011;15769;52.248;15.818;2024-03-02T08:21:19;114.43;;;60.80;;
28577;SDS011;15769;52.248;15.818;2024-03-02T08:26:22;106.43;;;57.65;;
28577;SDS011;15769;52.248;15.818;2024-03-02T08:31:27;93.78;;;51.60;;
28577;SDS011;15769;52.248;15.818;2024-03-02T08:37:09;114.78;;;62.70;;
28577;SDS011;15769;52.248;15.818;2024-03-02T08:42:12;115.45;;;62.00;;
28577;SDS011;15769;52.248;15.818;2024-03-02T08:52:18;92.60;;;51.30;;
28577;SDS011;15769;52.248;15.818;2024-03-02T08:57:22;115.78;;;62.10;;
28577;SDS011;15769;52.248;15.818;2024-03-02T09:02:27;110.45;;;59.38;;
28577;SDS011;15769;52.248;15.818;2024-03-02T09:12:34;114.32;;;62.58;;
28577;SDS011;15769;52.248;15.818;2024-03-02T09:17:39;116.53;;;60.42;;
28577;SDS011;15769;52.248;15.818;2024-03-02T09:22:57;117.53;;;62.45;;
28577;SDS011;15769;52.248;15.818;2024-03-02T09:28:24;117.10;;;63.05;;
28577;SDS011;15769;52.248;15.818;2024-03-02T09:33:59;111.25;;;60.08;;
28577;SDS011;15769;52.248;15.818;2024-03-02T09:39:33;113.50;;;61.53;;
28577;SDS011;15769;52.248;15.818;2024-03-02T09:45:00;103.28;;;56.03;;
28577;SDS011;15769;52.248;15.818;2024-03-02T09:50:05;106.15;;;57.33;;
28577;SDS011;15769;52.248;15.818;2024-03-02T09:55:09;102.55;;;57.55;;
28577;SDS011;15769;52.248;15.818;2024-03-02T10:00:12;102.43;;;55.47;;
28577;SDS011;15769;52.248;15.818;2024-03-02T10:05:26;101.18;;;55.80;;
28577;SDS011;15769;52.248;15.818;2024-03-02T10:10:56;111.30;;;58.15;;
28577;SDS011;15769;52.248;15.818;2024-03-02T10:16:11;89.85;;;50.35;;
28577;SDS011;15769;52.248;15.818;2024-03-02T10:21:19;95.95;;;53.15;;
28577;SDS011;15769;52.248;15.818;2024-03-02T10:26:29;101.28;;;56.53;;
28577;SDS011;15769;52.248;15.818;2024-03-02T10:31:45;88.97;;;49.72;;
28577;SDS011;15769;52.248;15.818;2024-03-02T10:36:49;96.97;;;53.95;;
28577;SDS011;15769;52.248;15.818;2024-03-02T10:41:55;81.40;;;46.45;;
28577;SDS011;15769;52.248;15.818;2024-03-02T10:47:00;81.15;;;47.65;;
28577;SDS011;15769;52.248;15.818;2024-03-02T10:52:10;83.30;;;48.72;;
28577;SDS011;15769;52.248;15.818;2024-03-02T10:57:14;88.45;;;51.05;;
28577;SDS011;15769;52.248;15.818;2024-03-02T11:02:23;81.40;;;50.08;;
28577;SDS011;15769;52.248;15.818;2024-03-02T11:07:27;90.10;;;50.42;;
28577;SDS011;15769;52.248;15.818;2024-03-02T11:13:08;84.68;;;50.08;;
28577;SDS011;15769;52.248;15.818;2024-03-02T11:18:10;91.75;;;54.20;;
28577;SDS011;15769;52.248;15.818;2024-03-02T11:23:16;103.68;;;56.35;;
28577;SDS011;15769;52.248;15.818;2024-03-02T11:28:26;82.78;;;49.92;;
28577;SDS011;15769;52.248;15.818;2024-03-02T11:33:42;77.07;;;47.72;;
28577;SDS011;15769;52.248;15.818;2024-03-02T11:38:50;72.90;;;45.67;;
28577;SDS011;15769;52.248;15.818;2024-03-02T11:43:59;78.97;;;45.95;;
28577;SDS011;15769;52.248;15.818;2024-03-02T11:50:04;69.75;;;42.83;;
28577;SDS011;15769;52.248;15.818;2024-03-02T11:55:38;68.37;;;42.70;;
28577;SDS011;15769;52.248;15.818;2024-03-02T12:00:47;74.82;;;44.35;;
28577;SDS011;15769;52.248;15.818;2024-03-02T12:05:59;64.32;;;40.60;;
28577;SDS011;15769;52.248;15.818;2024-03-02T12:11:12;73.50;;;45.30;;
28577;SDS011;15769;52.248;15.818;2024-03-02T12:16:25;66.73;;;40.53;;
28577;SDS011;15769;52.248;15.818;2024-03-02T12:21:31;80.45;;;49.08;;
28577;SDS011;15769;52.248;15.818;2024-03-02T12:26:34;66.18;;;41.28;;
28577;SDS011;15769;52.248;15.818;2024-03-02T12:31:44;68.75;;;41.95;;
28577;SDS011;15769;52.248;15.818;2024-03-02T12:36:54;61.42;;;36.67;;
28577;SDS011;15769;52.248;15.818;2024-03-02T12:41:58;64.45;;;39.40;;
28577;SDS011;15769;52.248;15.818;2024-03-02T12:47:03;58.50;;;35.33;;
28577;SDS011;15769;52.248;15.818;2024-03-02T12:52:07;56.95;;;36.13;;
28577;SDS011;15769;52.248;15.818;2024-03-02T12:57:19;70.22;;;39.88;;
28577;SDS011;15769;52.248;15.818;2024-03-02T13:02:27;54.35;;;35.15;;
28577;SDS011;15769;52.248;15.818;2024-03-02T13:07:38;50.28;;;30.30;;
28577;SDS011;15769;52.248;15.818;2024-03-02T13:12:43;49.60;;;30.35;;
28577;SDS011;15769;52.248;15.818;2024-03-02T13:17:48;52.85;;;26.88;;
28577;SDS011;15769;52.248;15.818;2024-03-02T13:23:08;111.25;;;30.85;;
28577;SDS011;15769;52.248;15.818;2024-03-02T13:28:19;51.05;;;30.05;;
28577;SDS011;15769;52.248;15.818;2024-03-02T13:33:28;47.83;;;29.05;;
28577;SDS011;15769;52.248;15.818;2024-03-02T13:38:33;55.40;;;34.60;;
28577;SDS011;15769;52.248;15.818;2024-03-02T13:48:41;55.65;;;34.42;;
28577;SDS011;15769;52.248;15.818;2024-03-02T13:58:48;51.55;;;31.27;;
28577;SDS011;15769;52.248;15.818;2024-03-02T14:03:52;49.13;;;31.48;;
28577;SDS011;15769;52.248;15.818;2024-03-02T14:08:58;53.50;;;33.33;;
28577;SDS011;15769;52.248;15.818;2024-03-02T14:14:03;52.42;;;33.72;;
28577;SDS011;15769;52.248;15.818;2024-03-02T14:24:10;53.13;;;31.25;;
28577;SDS011;15769;52.248;15.818;2024-03-02T14:29:13;67.70;;;36.97;;
28577;SDS011;15769;52.248;15.818;2024-03-02T14:34:36;56.40;;;34.53;;
28577;SDS011;15769;52.248;15.818;2024-03-02T14:40:39;65.78;;;40.10;;
28577;SDS011;15769;52.248;15.818;2024-03-02T14:45:52;60.92;;;37.92;;
28577;SDS011;15769;52.248;15.818;2024-03-02T14:51:05;66.05;;;40.67;;
28577;SDS011;15769;52.248;15.818;2024-03-02T14:56:08;67.70;;;40.33;;
28577;SDS011;15769;52.248;15.818;2024-03-02T15:01:12;76.35;;;42.90;;
28577;SDS011;15769;52.248;15.818;2024-03-02T15:06:16;70.72;;;40.60;;
28577;SDS011;15769;52.248;15.818;2024-03-02T15:11:20;73.15;;;41.78;;
28577;SDS011;15769;52.248;15.818;2024-03-02T15:16:26;67.43;;;39.60;;
28577;SDS011;15769;52.248;15.818;2024-03-02T15:21:31;66.93;;;39.67;;
28577;SDS011;15769;52.248;15.818;2024-03-02T15:26:34;58.78;;;34.95;;
28577;SDS011;15769;52.248;15.818;2024-03-02T15:36:40;56.47;;;32.30;;
28577;SDS011;15769;52.248;15.818;2024-03-02T15:41:44;69.80;;;37.08;;
28577;SDS011;15769;52.248;15.818;2024-03-02T15:51:53;56.90;;;33.13;;
28577;SDS011;15769;52.248;15.818;2024-03-02T15:57:08;48.83;;;31.10;;
28577;SDS011;15769;52.248;15.818;2024-03-02T16:02:14;55.35;;;31.95;;
28577;SDS011;15769;52.248;15.818;2024-03-02T16:07:20;64.38;;;35.97;;
28577;SDS011;15769;52.248;15.818;2024-03-02T16:12:23;62.95;;;34.67;;
28577;SDS011;15769;52.248;15.818;2024-03-02T16:22:30;54.50;;;33.20;;
28577;SDS011;15769;52.248;15.818;2024-03-02T16:27:34;49.38;;;29.73;;
28577;SDS011;15769;52.248;15.818;2024-03-02T16:32:38;63.85;;;34.78;;
28577;SDS011;15769;52.248;15.818;2024-03-02T16:42:45;69.40;;;38.93;;
28577;SDS011;15769;52.248;15.818;2024-03-02T16:53:10;62.85;;;36.70;;
28577;SDS011;15769;52.248;15.818;2024-03-02T17:03:18;67.63;;;36.13;;
28577;SDS011;15769;52.248;15.818;2024-03-02T17:08:22;68.25;;;35.63;;
28577;SDS011;15769;52.248;15.818;2024-03-02T17:13:25;65.38;;;37.47;;
28577;SDS011;15769;52.248;15.818;2024-03-02T17:18:47;61.08;;;34.20;;
28577;SDS011;15769;52.248;15.818;2024-03-02T17:28:54;62.23;;;34.57;;
28577;SDS011;15769;52.248;15.818;2024-03-02T17:39:02;63.35;;;36.58;;
28577;SDS011;15769;52.248;15.818;2024-03-02T17:44:14;68.57;;;42.03;;
28577;SDS011;15769;52.248;15.818;2024-03-02T17:49:20;66.80;;;38.97;;
28577;SDS011;15769;52.248;15.818;2024-03-02T17:54:24;71.00;;;40.70;;
28577;SDS011;15769;52.248;15.818;2024-03-02T18:04:31;73.88;;;41.42;;
28577;SDS011;15769;52.248;15.818;2024-03-02T18:14:41;83.72;;;45.58;;
28577;SDS011;15769;52.248;15.818;2024-03-02T18:19:44;83.53;;;48.03;;
28577;SDS011;15769;52.248;15.818;2024-03-02T18:24:48;82.05;;;46.28;;
28577;SDS011;15769;52.248;15.818;2024-03-02T18:29:52;84.63;;;46.88;;
28577;SDS011;15769;52.248;15.818;2024-03-02T18:34:56;105.13;;;59.67;;
28577;SDS011;15769;52.248;15.818;2024-03-02T18:40:00;90.72;;;52.63;;
28577;SDS011;15769;52.248;15.818;2024-03-02T18:45:04;162.52;;;93.95;;
28577;SDS011;15769;52.248;15.818;2024-03-02T18:55:45;158.32;;;90.30;;
28577;SDS011;15769;52.248;15.818;2024-03-02T19:01:14;189.88;;;98.25;;
28577;SDS011;15769;52.248;15.818;2024-03-02T19:06:55;172.32;;;89.03;;
28577;SDS011;15769;52.248;15.818;2024-03-02T19:12:36;204.48;;;106.82;;
28577;SDS011;15769;52.248;15.818;2024-03-02T19:18:19;186.02;;;98.05;;
28577;SDS011;15769;52.248;15.818;2024-03-02T19:23:49;286.88;;;141.57;;
28577;SDS011;15769;52.248;15.818;2024-03-02T19:29:20;288.40;;;141.27;;
28577;SDS011;15769;52.248;15.818;2024-03-02T19:34:57;206.55;;;93.40;;
28577;SDS011;15769;52.248;15.818;2024-03-02T19:40:41;127.32;;;63.05;;
28577;SDS011;15769;52.248;15.818;2024-03-02T19:46:24;92.13;;;49.88;;
28577;SDS011;15769;52.248;15.818;2024-03-02T19:52:03;89.10;;;50.85;;
28577;SDS011;15769;52.248;15.818;2024-03-02T19:57:07;81.60;;;45.40;;
28577;SDS011;15769;52.248;15.818;2024-03-02T20:02:11;109.40;;;58.63;;
28577;SDS011;15769;52.248;15.818;2024-03-02T20:07:18;97.80;;;54.05;;
28577;SDS011;15769;52.248;15.818;2024-03-02T20:12:26;86.90;;;49.13;;
28577;SDS011;15769;52.248;15.818;2024-03-02T20:17:31;98.72;;;51.95;;
28577;SDS011;15769;52.248;15.818;2024-03-02T20:27:47;96.53;;;49.75;;
28577;SDS011;15769;52.248;15.818;2024-03-02T20:32:59;123.93;;;61.63;;
28577;SDS011;15769;52.248;15.818;2024-03-02T20:43:06;103.90;;;56.08;;
28577;SDS011;15769;52.248;15.818;2024-03-02T20:53:15;122.35;;;65.30;;
28577;SDS011;15769;52.248;15.818;2024-03-02T20:58:18;143.68;;;73.05;;
28577;SDS011;15769;52.248;15.818;2024-03-02T21:08:25;218.68;;;88.75;;
28577;SDS011;15769;52.248;15.818;2024-03-02T21:13:33;215.23;;;97.75;;
28577;SDS011;15769;52.248;15.818;2024-03-02T21:18:50;269.70;;;107.28;;
28577;SDS011;15769;52.248;15.818;2024-03-02T21:23:55;228.10;;;89.18;;
28577;SDS011;15769;52.248;15.818;2024-03-02T21:29:00;207.65;;;82.20;;
28577;SDS011;15769;52.248;15.818;2024-03-02T21:34:05;201.30;;;73.75;;
28577;SDS011;15769;52.248;15.818;2024-03-02T21:39:09;141.38;;;60.25;;
28577;SDS011;15769;52.248;15.818;2024-03-02T21:49:16;169.20;;;68.70;;
28577;SDS011;15769;52.248;15.818;2024-03-02T21:54:20;126.43;;;56.95;;
28577;SDS011;15769;52.248;15.818;2024-03-02T21:59:23;138.52;;;70.47;;
28577;SDS011;15769;52.248;15.818;2024-03-02T22:04:27;125.13;;;60.50;;
28577;SDS011;15769;52.248;15.818;2024-03-02T22:09:30;123.03;;;57.15;;
28577;SDS011;15769;52.248;15.818;2024-03-02T22:14:33;117.72;;;56.30;;
28577;SDS011;15769;52.248;15.818;2024-03-02T22:24:40;90.07;;;47.67;;
28577;SDS011;15769;52.248;15.818;2024-03-02T22:29:45;96.18;;;47.08;;
28577;SDS011;15769;52.248;15.818;2024-03-02T22:34:48;94.35;;;48.97;;
28577;SDS011;15769;52.248;15.818;2024-03-02T22:39:51;84.80;;;46.78;;
28577;SDS011;15769;52.248;15.818;2024-03-02T22:44:54;91.95;;;49.17;;
28577;SDS011;15769;52.248;15.818;2024-03-02T22:50:21;90.88;;;50.85;;
28577;SDS011;15769;52.248;15.818;2024-03-02T22:55:29;96.35;;;53.63;;
28577;SDS011;15769;52.248;15.818;2024-03-02T23:00:33;108.43;;;55.95;;
28577;SDS011;15769;52.248;15.818;2024-03-02T23:05:43;113.20;;;56.83;;
28577;SDS011;15769;52.248;15.818;2024-03-02T23:10:47;103.43;;;56.47;;
28577;SDS011;15769;52.248;15.818;2024-03-02T23:15:50;101.45;;;55.13;;
28577;SDS011;15769;52.248;15.818;2024-03-02T23:20:55;106.32;;;56.67;;
28577;SDS011;15769;52.248;15.818;2024-03-02T23:25:58;106.28;;;57.10;;
28577;SDS011;15769;52.248;15.818;2024-03-02T23:36:06;96.90;;;54.08;;
28577;SDS011;15769;52.248;15.818;2024-03-02T23:41:10;104.75;;;56.05;;
28577;SDS011;15769;52.248;15.818;2024-03-02T23:46:14;87.70;;;48.80;;
28577;SDS011;15769;52.248;15.818;2024-03-02T23:51:18;101.25;;;56.20;;
28577;SDS011;15769;52.248;15.818;2024-03-02T23:56:21;94.03;;;50.50;;
